sensor_id;sensor_type;location;lat;lon;timestamp;pressure;altitude;pressure_sealevel;temperature;humidity
85458;BME280;75848;42.706;23.292;2024-02-28T00:01:56;95419.25;;;9.18;60.93
85458;BME280;75848;42.706;23.292;2024-02-28T00:04:21;95423.22;;;9.10;60.62
85458;BME280;75848;42.706;23.292;2024-02-28T00:06:48;95418.88;;;8.79;61.61
85458;BME280;75848;42.706;23.292;2024-02-28T00:09:14;95414.44;;;8.55;62.15
85458;BME280;75848;42.706;23.292;2024-02-28T00:11:43;95421.22;;;8.77;61.72
85458;BME280;75848;42.706;23.292;2024-02-28T00:14:14;95413.09;;;8.77;61.45
85458;BME280;75848;42.706;23.292;2024-02-28T00:16:45;95413.00;;;8.88;61.51
85458;BME280;75848;42.706;23.292;2024-02-28T00:19:14;95420.00;;;8.85;61.27
85458;BME280;75848;42.706;23.292;2024-02-28T00:21:40;95422.72;;;8.82;61.39
85458;BME280;75848;42.706;23.292;2024-02-28T00:24:06;95412.75;;;8.75;61.55
85458;BME280;75848;42.706;23.292;2024-02-28T00:26:32;95419.81;;;8.58;62.63
85458;BME280;75848;42.706;23.292;2024-02-28T00:28:58;95418.13;;;8.27;63.30
85458;BME280;75848;42.706;23.292;2024-02-28T00:31:23;95418.44;;;8.40;62.99
85458;BME280;75848;42.706;23.292;2024-02-28T00:33:50;95425.69;;;8.50;62.76
85458;BME280;75848;42.706;23.292;2024-02-28T00:36:18;95408.75;;;8.42;62.69
85458;BME280;75848;42.706;23.292;2024-02-28T00:38:44;95417.19;;;8.48;62.28
85458;BME280;75848;42.706;23.292;2024-02-28T00:41:10;95421.88;;;8.47;62.07
85458;BME280;75848;42.706;23.292;2024-02-28T00:43:36;95412.53;;;8.52;62.04
85458;BME280;75848;42.706;23.292;2024-02-28T00:46:01;95420.38;;;8.39;62.18
85458;BME280;75848;42.706;23.292;2024-02-28T00:48:28;95418.06;;;8.38;62.00
85458;BME280;75848;42.706;23.292;2024-02-28T00:50:54;95419.22;;;8.37;62.19
85458;BME280;75848;42.706;23.292;2024-02-28T00:53:20;95415.75;;;8.33;62.50
85458;BME280;75848;42.706;23.292;2024-02-28T00:55:46;95416.97;;;8.21;62.25
85458;BME280;75848;42.706;23.292;2024-02-28T00:58:14;95430.13;;;8.23;63.05
85458;BME280;75848;42.706;23.292;2024-02-28T01:00:40;95424.75;;;8.16;62.38
85458;BME280;75848;42.706;23.292;2024-02-28T01:03:06;95409.38;;;8.02;62.73
85458;BME280;75848;42.706;23.292;2024-02-28T01:05:34;95416.72;;;8.02;63.22
85458;BME280;75848;42.706;23.292;2024-02-28T01:08:00;95420.97;;;7.99;62.75
85458;BME280;75848;42.706;23.292;2024-02-28T01:10:25;95429.06;;;7.99;63.19
85458;BME280;75848;42.706;23.292;2024-02-28T01:12:53;95430.25;;;8.02;62.98
85458;BME280;75848;42.706;23.292;2024-02-28T01:15:18;95426.84;;;7.87;64.05
85458;BME280;75848;42.706;23.292;2024-02-28T01:17:45;95428.00;;;7.90;63.44
85458;BME280;75848;42.706;23.292;2024-02-28T01:20:11;95420.72;;;7.73;63.75
85458;BME280;75848;42.706;23.292;2024-02-28T01:22:36;95435.00;;;7.77;63.88
85458;BME280;75848;42.706;23.292;2024-02-28T01:25:03;95427.28;;;7.75;64.11
85458;BME280;75848;42.706;23.292;2024-02-28T01:27:30;95431.13;;;7.74;64.26
85458;BME280;75848;42.706;23.292;2024-02-28T01:29:57;95430.81;;;7.62;64.47
85458;BME280;75848;42.706;23.292;2024-02-28T01:32:23;95432.00;;;7.54;64.82
85458;BME280;75848;42.706;23.292;2024-02-28T01:34:49;95439.66;;;7.66;64.56
85458;BME280;75848;42.706;23.292;2024-02-28T01:37:15;95440.06;;;7.64;64.17
85458;BME280;75848;42.706;23.292;2024-02-28T01:39:40;95439.31;;;7.60;64.83
85458;BME280;75848;42.706;23.292;2024-02-28T01:42:06;95431.28;;;7.46;64.92
85458;BME280;75848;42.706;23.292;2024-02-28T01:44:36;95444.41;;;7.37;65.87
85458;BME280;75848;42.706;23.292;2024-02-28T01:47:05;95439.72;;;7.48;65.10
85458;BME280;75848;42.706;23.292;2024-02-28T01:49:32;95444.31;;;7.65;64.71
85458;BME280;75848;42.706;23.292;2024-02-28T01:52:00;95436.25;;;7.51;65.37
85458;BME280;75848;42.706;23.292;2024-02-28T01:54:28;95446.63;;;7.67;64.17
85458;BME280;75848;42.706;23.292;2024-02-28T01:56:55;95438.91;;;7.62;64.38
85458;BME280;75848;42.706;23.292;2024-02-28T01:59:24;95447.03;;;7.65;64.86
85458;BME280;75848;42.706;23.292;2024-02-28T02:01:52;95429.75;;;7.42;64.81
85458;BME280;75848;42.706;23.292;2024-02-28T02:04:19;95442.03;;;7.50;64.60
85458;BME280;75848;42.706;23.292;2024-02-28T02:06:47;95428.22;;;7.37;65.64
85458;BME280;75848;42.706;23.292;2024-02-28T02:09:13;95445.88;;;7.52;64.77
85458;BME280;75848;42.706;23.292;2024-02-28T02:11:40;95452.09;;;7.42;65.36
85458;BME280;75848;42.706;23.292;2024-02-28T02:14:06;95436.28;;;7.41;65.09
85458;BME280;75848;42.706;23.292;2024-02-28T02:16:31;95443.22;;;7.45;65.10
85458;BME280;75848;42.706;23.292;2024-02-28T02:18:57;95441.69;;;7.44;65.38
85458;BME280;75848;42.706;23.292;2024-02-28T02:21:24;95433.56;;;7.55;65.04
85458;BME280;75848;42.706;23.292;2024-02-28T02:23:53;95438.53;;;7.67;64.68
85458;BME280;75848;42.706;23.292;2024-02-28T02:26:19;95446.25;;;7.65;64.54
85458;BME280;75848;42.706;23.292;2024-02-28T02:28:47;95433.53;;;7.62;64.77
85458;BME280;75848;42.706;23.292;2024-02-28T02:31:14;95424.31;;;7.49;65.01
85458;BME280;75848;42.706;23.292;2024-02-28T02:33:41;95443.56;;;7.58;64.96
85458;BME280;75848;42.706;23.292;2024-02-28T02:36:06;95442.75;;;7.64;65.18
85458;BME280;75848;42.706;23.292;2024-02-28T02:38:33;95445.50;;;7.61;65.13
85458;BME280;75848;42.706;23.292;2024-02-28T02:40:59;95449.72;;;7.65;65.09
85458;BME280;75848;42.706;23.292;2024-02-28T02:43:26;95450.50;;;7.59;65.06
85458;BME280;75848;42.706;23.292;2024-02-28T02:45:51;95434.38;;;7.45;65.22
85458;BME280;75848;42.706;23.292;2024-02-28T02:48:18;95444.00;;;7.42;66.07
85458;BME280;75848;42.706;23.292;2024-02-28T02:50:44;95442.09;;;7.32;66.49
85458;BME280;75848;42.706;23.292;2024-02-28T02:53:11;95435.94;;;7.25;66.68
85458;BME280;75848;42.706;23.292;2024-02-28T02:55:37;95443.69;;;7.19;66.76
85458;BME280;75848;42.706;23.292;2024-02-28T02:58:03;95439.06;;;7.20;67.35
85458;BME280;75848;42.706;23.292;2024-02-28T03:00:28;95442.91;;;7.26;66.79
85458;BME280;75848;42.706;23.292;2024-02-28T03:02:54;95436.34;;;7.23;66.78
85458;BME280;75848;42.706;23.292;2024-02-28T03:05:20;95443.25;;;7.38;67.19
85458;BME280;75848;42.706;23.292;2024-02-28T03:07:45;95440.91;;;7.44;66.19
85458;BME280;75848;42.706;23.292;2024-02-28T03:10:11;95447.47;;;7.43;65.93
85458;BME280;75848;42.706;23.292;2024-02-28T03:12:37;95445.97;;;7.31;65.97
85458;BME280;75848;42.706;23.292;2024-02-28T03:15:02;95439.00;;;7.34;66.69
85458;BME280;75848;42.706;23.292;2024-02-28T03:17:29;95449.06;;;7.26;66.44
85458;BME280;75848;42.706;23.292;2024-02-28T03:19:54;95447.91;;;7.24;67.05
85458;BME280;75848;42.706;23.292;2024-02-28T03:22:20;95446.75;;;7.28;67.44
85458;BME280;75848;42.706;23.292;2024-02-28T03:24:46;95447.13;;;7.30;67.18
85458;BME280;75848;42.706;23.292;2024-02-28T03:27:11;95448.31;;;7.26;66.80
85458;BME280;75848;42.706;23.292;2024-02-28T03:29:37;95457.16;;;7.26;66.36
85458;BME280;75848;42.706;23.292;2024-02-28T03:32:05;95451.41;;;7.14;67.13
85458;BME280;75848;42.706;23.292;2024-02-28T03:34:31;95443.34;;;6.96;67.68
85458;BME280;75848;42.706;23.292;2024-02-28T03:36:57;95456.81;;;7.03;68.01
85458;BME280;75848;42.706;23.292;2024-02-28T03:39:27;95452.19;;;7.07;67.70
85458;BME280;75848;42.706;23.292;2024-02-28T03:41:54;95461.44;;;7.10;67.44
85458;BME280;75848;42.706;23.292;2024-02-28T03:44:21;95461.84;;;6.98;67.98
85458;BME280;75848;42.706;23.292;2024-02-28T03:46:49;95469.53;;;6.92;68.93
85458;BME280;75848;42.706;23.292;2024-02-28T03:49:16;95456.06;;;6.92;68.62
85458;BME280;75848;42.706;23.292;2024-02-28T03:51:43;95466.84;;;7.03;68.16
85458;BME280;75848;42.706;23.292;2024-02-28T03:54:09;95467.63;;;7.07;67.97
85458;BME280;75848;42.706;23.292;2024-02-28T03:56:35;95459.13;;;7.08;68.12
85458;BME280;75848;42.706;23.292;2024-02-28T03:59:02;95467.63;;;6.93;68.18
85458;BME280;75848;42.706;23.292;2024-02-28T04:01:29;95462.22;;;6.96;68.64
85458;BME280;75848;42.706;23.292;2024-02-28T04:03:55;95463.78;;;6.90;68.42
85458;BME280;75848;42.706;23.292;2024-02-28T04:06:20;95464.94;;;6.75;69.54
85458;BME280;75848;42.706;23.292;2024-02-28T04:08:47;95468.75;;;6.95;68.03
85458;BME280;75848;42.706;23.292;2024-02-28T04:11:14;95461.81;;;7.01;67.98
85458;BME280;75848;42.706;23.292;2024-02-28T04:13:41;95469.97;;;6.91;68.44
85458;BME280;75848;42.706;23.292;2024-02-28T04:16:08;95459.53;;;6.93;68.93
85458;BME280;75848;42.706;23.292;2024-02-28T04:18:36;95456.44;;;6.98;67.88
85458;BME280;75848;42.706;23.292;2024-02-28T04:21:02;95465.72;;;6.93;68.87
85458;BME280;75848;42.706;23.292;2024-02-28T04:23:28;95452.22;;;6.86;68.11
85458;BME280;75848;42.706;23.292;2024-02-28T04:25:54;95462.63;;;6.95;68.32
85458;BME280;75848;42.706;23.292;2024-02-28T04:28:19;95465.69;;;6.90;68.64
85458;BME280;75848;42.706;23.292;2024-02-28T04:30:45;95460.72;;;6.85;68.69
85458;BME280;75848;42.706;23.292;2024-02-28T04:33:11;95455.69;;;6.83;69.37
85458;BME280;75848;42.706;23.292;2024-02-28T04:35:38;95457.63;;;6.76;70.84
85458;BME280;75848;42.706;23.292;2024-02-28T04:38:20;95448.75;;;6.72;69.39
85458;BME280;75848;42.706;23.292;2024-02-28T04:41:06;95466.09;;;6.57;70.09
85458;BME280;75848;42.706;23.292;2024-02-28T04:43:34;95457.63;;;6.62;69.42
85458;BME280;75848;42.706;23.292;2024-02-28T04:46:01;95460.72;;;6.74;69.16
85458;BME280;75848;42.706;23.292;2024-02-28T04:48:28;95451.44;;;6.65;68.49
85458;BME280;75848;42.706;23.292;2024-02-28T04:50:54;95468.41;;;6.79;69.37
85458;BME280;75848;42.706;23.292;2024-02-28T04:53:20;95476.09;;;6.74;68.99
85458;BME280;75848;42.706;23.292;2024-02-28T04:55:46;95473.00;;;6.72;68.52
85458;BME280;75848;42.706;23.292;2024-02-28T04:58:14;95474.19;;;6.67;69.01
85458;BME280;75848;42.706;23.292;2024-02-28T05:00:40;95478.41;;;6.57;71.56
85458;BME280;75848;42.706;23.292;2024-02-28T05:03:05;95477.66;;;6.61;70.18
85458;BME280;75848;42.706;23.292;2024-02-28T05:05:31;95481.91;;;6.65;72.16
85458;BME280;75848;42.706;23.292;2024-02-28T05:07:58;95466.88;;;6.71;69.49
85458;BME280;75848;42.706;23.292;2024-02-28T05:10:23;95479.97;;;6.62;69.53
85458;BME280;75848;42.706;23.292;2024-02-28T05:12:54;95484.59;;;6.58;69.84
85458;BME280;75848;42.706;23.292;2024-02-28T05:15:20;95489.97;;;6.65;69.75
85458;BME280;75848;42.706;23.292;2024-02-28T05:17:49;95489.56;;;6.52;70.15
85458;BME280;75848;42.706;23.292;2024-02-28T05:20:38;95499.59;;;6.52;69.45
85458;BME280;75848;42.706;23.292;2024-02-28T05:23:06;95504.63;;;6.46;70.14
85458;BME280;75848;42.706;23.292;2024-02-28T05:25:35;95490.75;;;6.48;70.51
85458;BME280;75848;42.706;23.292;2024-02-28T05:28:02;95512.69;;;6.57;70.49
85458;BME280;75848;42.706;23.292;2024-02-28T05:30:29;95507.69;;;6.59;70.02
85458;BME280;75848;42.706;23.292;2024-02-28T05:32:57;95506.16;;;6.65;70.14
85458;BME280;75848;42.706;23.292;2024-02-28T05:35:23;95510.00;;;6.78;69.29
85458;BME280;75848;42.706;23.292;2024-02-28T05:37:54;95514.66;;;6.85;69.15
85458;BME280;75848;42.706;23.292;2024-02-28T05:40:22;95513.88;;;6.91;68.48
85458;BME280;75848;42.706;23.292;2024-02-28T05:42:48;95531.59;;;6.99;68.48
85458;BME280;75848;42.706;23.292;2024-02-28T05:45:13;95524.66;;;7.05;68.41
85458;BME280;75848;42.706;23.292;2024-02-28T05:47:39;95516.19;;;6.96;68.43
85458;BME280;75848;42.706;23.292;2024-02-28T05:50:05;95539.69;;;6.89;68.95
85458;BME280;75848;42.706;23.292;2024-02-28T05:52:33;95529.66;;;6.82;69.83
85458;BME280;75848;42.706;23.292;2024-02-28T05:54:58;95536.22;;;6.95;69.11
85458;BME280;75848;42.706;23.292;2024-02-28T05:57:24;95538.53;;;6.97;69.06
85458;BME280;75848;42.706;23.292;2024-02-28T05:59:51;95532.75;;;7.05;68.60
85458;BME280;75848;42.706;23.292;2024-02-28T06:02:17;95540.06;;;7.05;69.01
85458;BME280;75848;42.706;23.292;2024-02-28T06:04:43;95543.16;;;7.21;69.05
85458;BME280;75848;42.706;23.292;2024-02-28T06:07:10;95543.94;;;7.21;69.22
85458;BME280;75848;42.706;23.292;2024-02-28T06:09:35;95543.53;;;7.30;69.08
85458;BME280;75848;42.706;23.292;2024-02-28T06:12:01;95547.38;;;7.46;68.34
85458;BME280;75848;42.706;23.292;2024-02-28T06:14:34;95551.56;;;7.68;68.60
85458;BME280;75848;42.706;23.292;2024-02-28T06:17:02;95535.31;;;7.79;67.59
85458;BME280;75848;42.706;23.292;2024-02-28T06:19:28;95540.31;;;7.84;67.45
85458;BME280;75848;42.706;23.292;2024-02-28T06:21:53;95554.56;;;8.02;67.37
85458;BME280;75848;42.706;23.292;2024-02-28T06:24:20;95549.13;;;8.09;68.07
85458;BME280;75848;42.706;23.292;2024-02-28T06:26:45;95555.25;;;8.23;66.97
85458;BME280;75848;42.706;23.292;2024-02-28T06:29:11;95552.81;;;8.46;67.64
85458;BME280;75848;42.706;23.292;2024-02-28T06:31:37;95546.56;;;8.56;67.05
85458;BME280;75848;42.706;23.292;2024-02-28T06:34:07;95559.97;;;8.81;66.36
85458;BME280;75848;42.706;23.292;2024-02-28T06:36:33;95562.63;;;8.85;65.64
85458;BME280;75848;42.706;23.292;2024-02-28T06:39:01;95561.69;;;9.09;65.12
85458;BME280;75848;42.706;23.292;2024-02-28T06:41:28;95553.97;;;9.07;64.95
85458;BME280;75848;42.706;23.292;2024-02-28T06:43:54;95567.69;;;9.34;64.79
85458;BME280;75848;42.706;23.292;2024-02-28T06:46:20;95551.81;;;9.32;64.93
85458;BME280;75848;42.706;23.292;2024-02-28T06:48:45;95565.63;;;9.45;64.71
85458;BME280;75848;42.706;23.292;2024-02-28T06:51:16;95566.38;;;9.49;64.80
85458;BME280;75848;42.706;23.292;2024-02-28T06:53:42;95559.16;;;9.72;63.53
85458;BME280;75848;42.706;23.292;2024-02-28T06:56:09;95556.59;;;9.58;64.39
85458;BME280;75848;42.706;23.292;2024-02-28T06:58:36;95567.41;;;9.99;63.31
85458;BME280;75848;42.706;23.292;2024-02-28T07:01:03;95568.41;;;10.15;62.94
85458;BME280;75848;42.706;23.292;2024-02-28T07:03:29;95550.41;;;10.32;62.09
85458;BME280;75848;42.706;23.292;2024-02-28T07:05:57;95566.50;;;10.46;61.67
85458;BME280;75848;42.706;23.292;2024-02-28T07:08:24;95560.03;;;11.16;59.55
85458;BME280;75848;42.706;23.292;2024-02-28T07:10:50;95553.88;;;12.04;56.25
85458;BME280;75848;42.706;23.292;2024-02-28T07:13:21;95549.69;;;12.39;54.27
85458;BME280;75848;42.706;23.292;2024-02-28T07:15:58;95559.09;;;12.89;53.54
85458;BME280;75848;42.706;23.292;2024-02-28T07:18:37;95551.84;;;13.35;51.88
85458;BME280;75848;42.706;23.292;2024-02-28T07:21:05;95555.97;;;13.71;50.34
85458;BME280;75848;42.706;23.292;2024-02-28T07:23:32;95556.47;;;14.27;48.74
85458;BME280;75848;42.706;23.292;2024-02-28T07:26:01;95560.94;;;14.05;49.32
85458;BME280;75848;42.706;23.292;2024-02-28T07:28:28;95560.84;;;13.00;52.14
85458;BME280;75848;42.706;23.292;2024-02-28T07:30:53;95562.53;;;13.10;51.97
85458;BME280;75848;42.706;23.292;2024-02-28T07:33:20;95555.16;;;13.26;51.78
85458;BME280;75848;42.706;23.292;2024-02-28T07:35:46;95559.25;;;13.02;52.74
85458;BME280;75848;42.706;23.292;2024-02-28T07:38:16;95555.41;;;13.48;51.38
85458;BME280;75848;42.706;23.292;2024-02-28T07:40:47;95562.78;;;13.79;50.27
85458;BME280;75848;42.706;23.292;2024-02-28T07:43:14;95555.00;;;14.51;48.90
85458;BME280;75848;42.706;23.292;2024-02-28T07:45:40;95568.97;;;15.19;47.05
85458;BME280;75848;42.706;23.292;2024-02-28T07:48:06;95562.19;;;14.99;46.98
85458;BME280;75848;42.706;23.292;2024-02-28T07:50:36;95564.13;;;15.36;46.20
85458;BME280;75848;42.706;23.292;2024-02-28T07:53:09;95568.16;;;14.81;47.45
85458;BME280;75848;42.706;23.292;2024-02-28T07:55:38;95568.63;;;15.30;47.13
85458;BME280;75848;42.706;23.292;2024-02-28T07:58:05;95562.41;;;15.04;47.25
85458;BME280;75848;42.706;23.292;2024-02-28T08:00:32;95551.25;;;15.49;46.18
85458;BME280;75848;42.706;23.292;2024-02-28T08:03:01;95563.75;;;15.84;45.50
85458;BME280;75848;42.706;23.292;2024-02-28T08:05:30;95551.09;;;15.65;45.41
85458;BME280;75848;42.706;23.292;2024-02-28T08:08:06;95559.94;;;16.15;45.03
85458;BME280;75848;42.706;23.292;2024-02-28T08:10:32;95553.38;;;16.13;45.01
85458;BME280;75848;42.706;23.292;2024-02-28T08:12:58;95560.09;;;15.99;44.71
85458;BME280;75848;42.706;23.292;2024-02-28T08:15:25;95560.91;;;16.21;44.84
85458;BME280;75848;42.706;23.292;2024-02-28T08:17:53;95561.84;;;16.27;44.43
85458;BME280;75848;42.706;23.292;2024-02-28T08:20:20;95557.91;;;15.94;44.22
85458;BME280;75848;42.706;23.292;2024-02-28T08:22:47;95554.81;;;16.05;44.28
85458;BME280;75848;42.706;23.292;2024-02-28T08:25:14;95556.06;;;15.91;44.52
85458;BME280;75848;42.706;23.292;2024-02-28T08:27:41;95544.25;;;15.23;45.94
85458;BME280;75848;42.706;23.292;2024-02-28T08:30:14;95558.38;;;15.09;47.06
85458;BME280;75848;42.706;23.292;2024-02-28T08:32:41;95547.28;;;14.87;47.22
85458;BME280;75848;42.706;23.292;2024-02-28T08:35:09;95553.56;;;15.13;47.21
85458;BME280;75848;42.706;23.292;2024-02-28T08:37:40;95548.94;;;15.10;47.19
85458;BME280;75848;42.706;23.292;2024-02-28T08:40:08;95554.06;;;15.33;46.08
85458;BME280;75848;42.706;23.292;2024-02-28T08:42:34;95548.59;;;14.70;48.36
85458;BME280;75848;42.706;23.292;2024-02-28T08:45:02;95549.97;;;14.37;49.43
85458;BME280;75848;42.706;23.292;2024-02-28T08:47:32;95549.63;;;15.26;47.29
85458;BME280;75848;42.706;23.292;2024-02-28T08:49:59;95542.63;;;16.18;44.22
85458;BME280;75848;42.706;23.292;2024-02-28T08:52:25;95534.91;;;16.69;42.42
85458;BME280;75848;42.706;23.292;2024-02-28T08:54:52;95545.31;;;16.52;42.84
85458;BME280;75848;42.706;23.292;2024-02-28T08:57:19;95543.84;;;16.60;42.65
85458;BME280;75848;42.706;23.292;2024-02-28T08:59:49;95534.47;;;16.70;42.80
85458;BME280;75848;42.706;23.292;2024-02-28T09:02:17;95536.06;;;16.89;42.54
85458;BME280;75848;42.706;23.292;2024-02-28T09:04:43;95533.53;;;17.35;41.11
85458;BME280;75848;42.706;23.292;2024-02-28T09:07:12;95531.31;;;17.12;41.54
85458;BME280;75848;42.706;23.292;2024-02-28T09:09:42;95536.97;;;16.77;42.57
85458;BME280;75848;42.706;23.292;2024-02-28T09:12:08;95544.19;;;17.33;41.22
85458;BME280;75848;42.706;23.292;2024-02-28T09:14:34;95536.56;;;17.37;40.82
85458;BME280;75848;42.706;23.292;2024-02-28T09:16:59;95537.78;;;16.96;41.31
85458;BME280;75848;42.706;23.292;2024-02-28T09:19:29;95544.72;;;16.57;42.43
85458;BME280;75848;42.706;23.292;2024-02-28T09:21:56;95542.88;;;16.54;42.69
85458;BME280;75848;42.706;23.292;2024-02-28T09:24:26;95542.53;;;16.31;43.34
85458;BME280;75848;42.706;23.292;2024-02-28T09:26:53;95525.56;;;16.36;43.50
85458;BME280;75848;42.706;23.292;2024-02-28T09:29:22;95528.97;;;16.70;42.67
85458;BME280;75848;42.706;23.292;2024-02-28T09:31:51;95521.81;;;16.64;42.83
85458;BME280;75848;42.706;23.292;2024-02-28T09:34:17;95524.50;;;16.42;42.43
85458;BME280;75848;42.706;23.292;2024-02-28T09:36:44;95521.09;;;16.29;43.10
85458;BME280;75848;42.706;23.292;2024-02-28T09:39:18;95516.38;;;16.30;43.19
85458;BME280;75848;42.706;23.292;2024-02-28T09:41:44;95511.94;;;16.45;42.80
85458;BME280;75848;42.706;23.292;2024-02-28T09:44:15;95517.84;;;16.95;41.73
85458;BME280;75848;42.706;23.292;2024-02-28T09:46:43;95513.03;;;17.18;40.70
85458;BME280;75848;42.706;23.292;2024-02-28T09:49:11;95507.53;;;17.09;41.86
85458;BME280;75848;42.706;23.292;2024-02-28T09:51:36;95509.44;;;17.30;41.14
85458;BME280;75848;42.706;23.292;2024-02-28T09:54:05;95503.25;;;17.47;41.47
85458;BME280;75848;42.706;23.292;2024-02-28T09:56:33;95508.16;;;16.82;41.94
85458;BME280;75848;42.706;23.292;2024-02-28T09:59:00;95499.31;;;16.47;43.01
85458;BME280;75848;42.706;23.292;2024-02-28T10:01:28;95487.59;;;16.47;42.82
85458;BME280;75848;42.706;23.292;2024-02-28T10:03:59;95498.06;;;15.84;44.56
85458;BME280;75848;42.706;23.292;2024-02-28T10:06:27;95500.66;;;16.21;43.49
85458;BME280;75848;42.706;23.292;2024-02-28T10:08:52;95494.22;;;16.15;43.28
85458;BME280;75848;42.706;23.292;2024-02-28T10:11:24;95494.59;;;16.05;43.83
85458;BME280;75848;42.706;23.292;2024-02-28T10:13:52;95501.72;;;16.02;43.94
85458;BME280;75848;42.706;23.292;2024-02-28T10:16:20;95489.44;;;16.28;42.65
85458;BME280;75848;42.706;23.292;2024-02-28T10:18:48;95490.06;;;16.32;42.67
85458;BME280;75848;42.706;23.292;2024-02-28T10:21:52;95484.19;;;16.00;43.23
85458;BME280;75848;42.706;23.292;2024-02-28T10:24:43;95478.00;;;15.99;43.00
85458;BME280;75848;42.706;23.292;2024-02-28T10:27:08;95479.44;;;16.34;42.85
85458;BME280;75848;42.706;23.292;2024-02-28T10:29:34;95472.81;;;16.44;42.33
85458;BME280;75848;42.706;23.292;2024-02-28T10:32:02;95473.00;;;16.28;42.41
85458;BME280;75848;42.706;23.292;2024-02-28T10:34:32;95459.81;;;16.57;41.73
85458;BME280;75848;42.706;23.292;2024-02-28T10:37:03;95460.88;;;16.90;42.13
85458;BME280;75848;42.706;23.292;2024-02-28T10:39:30;95462.91;;;17.08;40.45
85458;BME280;75848;42.706;23.292;2024-02-28T10:41:59;95453.56;;;16.87;40.39
85458;BME280;75848;42.706;23.292;2024-02-28T10:44:27;95456.97;;;17.10;40.51
85458;BME280;75848;42.706;23.292;2024-02-28T10:46:53;95463.03;;;17.53;39.01
85458;BME280;75848;42.706;23.292;2024-02-28T10:49:21;95446.66;;;17.23;39.41
85458;BME280;75848;42.706;23.292;2024-02-28T10:51:49;95441.69;;;17.57;39.39
85458;BME280;75848;42.706;23.292;2024-02-28T10:54:21;95444.59;;;17.45;39.59
85458;BME280;75848;42.706;23.292;2024-02-28T10:56:52;95453.28;;;17.79;38.72
85458;BME280;75848;42.706;23.292;2024-02-28T10:59:21;95453.41;;;18.12;37.68
85458;BME280;75848;42.706;23.292;2024-02-28T11:01:54;95438.50;;;17.68;37.22
85458;BME280;75848;42.706;23.292;2024-02-28T11:04:23;95439.63;;;17.31;37.23
85458;BME280;75848;42.706;23.292;2024-02-28T11:07:00;95432.47;;;17.15;37.91
85458;BME280;75848;42.706;23.292;2024-02-28T11:09:28;95428.75;;;17.00;37.73
85458;BME280;75848;42.706;23.292;2024-02-28T11:11:57;95421.06;;;17.26;37.91
85458;BME280;75848;42.706;23.292;2024-02-28T11:14:24;95420.44;;;17.40;37.92
85458;BME280;75848;42.706;23.292;2024-02-28T11:17:04;95416.47;;;17.41;38.08
85458;BME280;75848;42.706;23.292;2024-02-28T11:19:33;95404.50;;;17.65;37.16
85458;BME280;75848;42.706;23.292;2024-02-28T11:22:02;95404.50;;;17.65;36.46
85458;BME280;75848;42.706;23.292;2024-02-28T11:24:31;95400.16;;;17.19;36.99
85458;BME280;75848;42.706;23.292;2024-02-28T11:26:59;95398.50;;;17.13;37.70
85458;BME280;75848;42.706;23.292;2024-02-28T11:29:28;95402.28;;;17.15;36.70
85458;BME280;75848;42.706;23.292;2024-02-28T11:31:57;95398.19;;;17.38;36.16
85458;BME280;75848;42.706;23.292;2024-02-28T11:34:24;95398.34;;;17.34;36.60
85458;BME280;75848;42.706;23.292;2024-02-28T11:36:51;95389.34;;;17.07;37.24
85458;BME280;75848;42.706;23.292;2024-02-28T11:39:18;95397.56;;;17.25;37.40
85458;BME280;75848;42.706;23.292;2024-02-28T11:41:46;95399.13;;;17.26;37.44
85458;BME280;75848;42.706;23.292;2024-02-28T11:44:13;95400.94;;;17.38;37.11
85458;BME280;75848;42.706;23.292;2024-02-28T11:46:43;95398.84;;;17.60;36.32
85458;BME280;75848;42.706;23.292;2024-02-28T11:49:10;95398.34;;;17.34;37.06
85458;BME280;75848;42.706;23.292;2024-02-28T11:51:35;95386.31;;;17.23;37.28
85458;BME280;75848;42.706;23.292;2024-02-28T11:54:04;95386.47;;;17.37;37.42
85458;BME280;75848;42.706;23.292;2024-02-28T11:56:30;95391.69;;;17.44;37.35
85458;BME280;75848;42.706;23.292;2024-02-28T11:58:58;95380.19;;;17.28;37.78
85458;BME280;75848;42.706;23.292;2024-02-28T12:01:51;95374.44;;;17.62;36.41
85458;BME280;75848;42.706;23.292;2024-02-28T12:04:17;95371.84;;;17.76;36.23
85458;BME280;75848;42.706;23.292;2024-02-28T12:06:43;95374.00;;;17.63;36.88
85458;BME280;75848;42.706;23.292;2024-02-28T12:09:12;95370.19;;;17.61;36.40
85458;BME280;75848;42.706;23.292;2024-02-28T12:11:40;95361.19;;;17.60;36.63
85458;BME280;75848;42.706;23.292;2024-02-28T12:14:07;95360.53;;;17.83;35.73
85458;BME280;75848;42.706;23.292;2024-02-28T12:16:39;95357.34;;;17.85;36.73
85458;BME280;75848;42.706;23.292;2024-02-28T12:19:09;95358.72;;;17.89;36.12
85458;BME280;75848;42.706;23.292;2024-02-28T12:21:39;95345.63;;;17.66;36.69
85458;BME280;75848;42.706;23.292;2024-02-28T12:24:10;95352.19;;;17.69;36.00
85458;BME280;75848;42.706;23.292;2024-02-28T12:26:39;95342.09;;;17.84;36.26
85458;BME280;75848;42.706;23.292;2024-02-28T12:29:11;95341.03;;;17.90;36.73
85458;BME280;75848;42.706;23.292;2024-02-28T12:31:36;95332.59;;;18.12;35.92
85458;BME280;75848;42.706;23.292;2024-02-28T12:34:02;95321.53;;;18.30;35.87
85458;BME280;75848;42.706;23.292;2024-02-28T12:36:34;95340.84;;;17.94;36.03
85458;BME280;75848;42.706;23.292;2024-02-28T12:39:03;95338.28;;;17.90;36.03
85458;BME280;75848;42.706;23.292;2024-02-28T12:41:32;95339.22;;;17.78;36.00
85458;BME280;75848;42.706;23.292;2024-02-28T12:44:02;95333.28;;;17.71;36.78
85458;BME280;75848;42.706;23.292;2024-02-28T12:46:29;95340.28;;;17.81;37.06
85458;BME280;75848;42.706;23.292;2024-02-28T12:48:57;95334.19;;;17.68;37.10
85458;BME280;75848;42.706;23.292;2024-02-28T12:51:45;95333.16;;;17.65;37.50
85458;BME280;75848;42.706;23.292;2024-02-28T12:54:12;95329.94;;;17.76;36.39
85458;BME280;75848;42.706;23.292;2024-02-28T12:56:41;95337.25;;;17.70;36.97
85458;BME280;75848;42.706;23.292;2024-02-28T12:59:11;95329.63;;;17.65;36.76